Aérodrome :
LOGIN :

S'inscrire | Disclaimer

   EN    FR    IT 

 










Légende :    VFR   VFR Marginal   IFR   IFR Intensif   IFR Très Intensif
Visi : 
Plafond : 
>= 8 km
>= 3000ft
5 à 8 km
1000 à 3000 ft
1500m à 5 km
500 à 1000 ft
800 à 1500m
200 à 500 ft
< 800m
< 200 ft
Symboles :   Orages  Brouillard  Fortes neiges  Fortes précipitations  Vent > 20 kt
SIGMETs :   Divers  Orages  Givrage  Turbulence  Onde Orograph.  Cendres Volcan.







- Altitude de l'aérodrome : 36 ft
- Code IATA : GJL


DAAV - Jijel Ferhat Abbas

DERNIER METAR :
  • 210600Z 14005KT 9999 FEW040 BKN090 18/07 Q1013

METARs EXPIRÉS :
  • 210500Z 16008KT CAVOK 19/04 Q1013
  • 210400Z 18011KT CAVOK 19/05 Q1013

TAF TAF DAAV
Valide du 21 à 06h jusqu'au 22 à 06h UTC


210500Z 2106/2206 04008KT 9999 SCT020
PROB30
TEMPO 2106/2110 FEW023TCU
PROB40
TEMPO 2116/2206 4000 RA FEW020CB
Pas de NOTAMs connus pour ce terrain.
1 SIGMET publié pour la FIR Alger (DAAA) :
 
Orages noyés dans la masse
DAAA SIGMET 2 VALID 210400/210700 DAMM
DAAA ALGER FIR EMBD TS FCST WI N2857 W00017 - N2551 E00426 - N2316 E00234 - N2747 W00113 - N2857 W00017 TOP FL360 MOV NE NC=



MET'MAP, la Météo Aéronautique d'un coup d'oeil ! - Copyright ORBIFLY Décembre 2007 - Disclaimer

ORBIFLY MET'MAP TEAM :

Programmation & Développement : Alexandra Zaïnal
Conception & Développement : Baudouin d'Aumeries
Co-Programmation & Développement : Marc-Olivier Méhu
Soutien technique & logistique : Manuel Goepfert

Contact : metmap@orbifly.com




SOURCES & CREDITS :

   NOAA